Time;durP1;ratioP1;P1;durP2;ratioP2;P2;SDS_P1;SDS_P2;PMS_P1;PMS_P2;Temp;Humidity;BMP_temperature;BMP_pressure;BME280_temperature;BME280_humidity;BME280_pressure;Samples;Min_cycle;Max_cycle;Signal;HPM_P1;HPM_P2
2024/01/17 00:00:42;;;;;;;8.05;4.25;;;1.20;99.90;;;;;;4899108;29;20063;-76
2024/01/17 00:03:09;;;;;;;9.52;4.03;;;1.10;99.90;;;;;;4882446;29;20497;-76
2024/01/17 00:05:35;;;;;;;9.48;4.95;;;1.20;99.90;;;;;;4882142;29;20044;-76
2024/01/17 00:08:01;;;;;;;9.25;5.63;;;1.10;99.90;;;;;;4881857;29;20401;-76
2024/01/17 00:10:27;;;;;;;11.50;4.35;;;1.10;99.90;;;;;;4882129;29;20052;-76
2024/01/17 00:12:52;;;;;;;9.07;4.53;;;1.10;99.90;;;;;;4882067;29;20055;-76
2024/01/17 00:15:18;;;;;;;10.57;5.53;;;1.20;99.90;;;;;;4882204;29;20397;-76
2024/01/17 00:17:46;;;;;;;11.48;5.10;;;1.10;99.90;;;;;;4881999;29;20400;-76
2024/01/17 00:20:13;;;;;;;11.07;5.65;;;1.10;99.90;;;;;;4882194;29;20393;-76
2024/01/17 00:22:41;;;;;;;10.57;5.90;;;1.10;99.90;;;;;;4882190;29;20139;-76
2024/01/17 00:25:10;;;;;;;12.63;6.30;;;1.10;99.90;;;;;;4881938;29;20129;-76
2024/01/17 00:27:37;;;;;;;10.50;6.03;;;1.10;99.90;;;;;;4882204;29;20076;-76
2024/01/17 00:30:03;;;;;;;14.38;6.63;;;1.10;99.90;;;;;;4881733;29;20084;-76
2024/01/17 00:32:31;;;;;;;9.80;6.43;;;1.10;99.90;;;;;;4881762;29;20048;-76
2024/01/17 00:35:08;;;;;;;11.80;6.38;;;1.10;99.90;;;;;;4882018;29;20079;-76
2024/01/17 00:37:34;;;;;;;12.57;6.97;;;1.00;99.90;;;;;;4882100;29;20563;-76
2024/01/17 00:39:59;;;;;;;10.45;6.38;;;1.10;99.90;;;;;;4898331;29;20123;-76
2024/01/17 00:42:26;;;;;;;12.52;7.57;;;1.00;99.90;;;;;;4898441;29;20064;-76
2024/01/17 00:44:53;;;;;;;12.85;6.57;;;1.00;99.90;;;;;;4881810;29;20053;-76
2024/01/17 00:47:19;;;;;;;12.82;6.93;;;1.00;99.90;;;;;;4881663;29;20040;-76
2024/01/17 00:49:44;;;;;;;9.02;5.80;;;1.00;99.90;;;;;;4881764;29;20052;-76
2024/01/17 00:52:10;;;;;;;13.48;6.53;;;1.00;99.90;;;;;;4881885;29;20044;-76
2024/01/17 00:54:36;;;;;;;11.27;6.65;;;1.00;99.90;;;;;;4881917;29;20053;-76
2024/01/17 00:57:02;;;;;;;13.65;6.97;;;0.90;99.90;;;;;;4881796;29;20052;-76
2024/01/17 00:59:27;;;;;;;13.25;7.07;;;0.90;99.90;;;;;;4881809;29;20384;-76
2024/01/17 01:01:55;;;;;;;11.35;6.38;;;0.90;99.90;;;;;;4881612;29;20419;-76
2024/01/17 01:04:21;;;;;;;12.30;7.95;;;0.90;99.90;;;;;;4898544;29;20045;-76
2024/01/17 01:06:47;;;;;;;14.48;8.23;;;0.90;99.90;;;;;;4881538;29;20393;-76
2024/01/17 01:09:14;;;;;;;15.27;8.43;;;0.80;99.90;;;;;;4897995;29;20580;-76
2024/01/17 01:11:41;;;;;;;13.32;8.40;;;0.80;99.90;;;;;;4881553;29;20059;-76
2024/01/17 01:14:06;;;;;;;17.48;9.10;;;0.80;99.90;;;;;;4881273;29;20048;-76
2024/01/17 01:16:32;;;;;;;13.30;8.20;;;0.80;99.90;;;;;;4881402;29;20140;-76
2024/01/17 01:18:57;;;;;;;13.98;9.25;;;0.80;99.90;;;;;;4881739;29;20055;-76
2024/01/17 01:21:23;;;;;;;15.88;8.77;;;0.80;99.90;;;;;;4881444;29;20547;-76
2024/01/17 01:23:49;;;;;;;13.60;8.75;;;0.80;99.90;;;;;;4881495;29;20045;-76
2024/01/17 01:26:14;;;;;;;15.93;8.85;;;0.80;99.90;;;;;;4884000;29;20052;-76
2024/01/17 01:28:40;;;;;;;13.60;8.38;;;0.80;99.90;;;;;;4885100;29;20153;-76
2024/01/17 01:31:06;;;;;;;16.23;9.15;;;0.80;99.90;;;;;;4884852;29;20139;-76
2024/01/17 01:33:33;;;;;;;14.48;8.48;;;0.80;99.90;;;;;;4884812;29;20176;-76
2024/01/17 01:35:58;;;;;;;15.43;9.55;;;0.80;99.90;;;;;;4884863;29;20045;-76
2024/01/17 01:38:24;;;;;;;17.40;9.35;;;0.80;99.90;;;;;;4884875;29;20051;-76
2024/01/17 01:40:50;;;;;;;18.65;10.23;;;0.70;99.90;;;;;;4884659;29;20048;-76
2024/01/17 01:43:20;;;;;;;13.85;8.80;;;0.80;99.90;;;;;;4884838;29;20056;-76
2024/01/17 01:46:12;;;;;;;14.77;8.48;;;0.80;99.90;;;;;;4884478;29;20052;-76
2024/01/17 01:48:39;;;;;;;15.45;8.60;;;0.70;99.90;;;;;;4901399;29;20059;-76
2024/01/17 01:51:04;;;;;;;17.23;9.73;;;0.70;99.90;;;;;;4884633;29;20489;-76
2024/01/17 01:53:32;;;;;;;19.50;10.50;;;0.70;99.90;;;;;;4884470;29;20052;-76
2024/01/17 01:56:01;;;;;;;13.82;10.07;;;0.70;99.90;;;;;;4884808;29;20048;-76
2024/01/17 01:58:28;;;;;;;22.15;10.15;;;0.70;99.90;;;;;;4884478;29;20052;-76
2024/01/17 02:00:55;;;;;;;16.50;10.70;;;0.70;99.90;;;;;;4884756;29;20044;-76
2024/01/17 02:03:23;;;;;;;16.45;9.10;;;0.70;99.90;;;;;;4884588;29;20481;-76
2024/01/17 02:05:49;;;;;;;15.55;10.10;;;0.70;99.90;;;;;;4884416;29;20052;-76
2024/01/17 02:08:15;;;;;;;13.13;9.15;;;0.60;99.90;;;;;;4883932;29;20382;-76
2024/01/17 02:10:41;;;;;;;21.10;12.15;;;0.70;99.90;;;;;;4884070;29;20429;-76
2024/01/17 02:13:07;;;;;;;21.73;9.85;;;0.70;99.90;;;;;;4884147;29;20477;-76
2024/01/17 02:15:33;;;;;;;15.27;9.55;;;0.70;99.90;;;;;;4884131;29;20051;-76
2024/01/17 02:18:00;;;;;;;16.38;9.07;;;0.70;99.90;;;;;;4883968;29;20049;-76
2024/01/17 02:20:26;;;;;;;18.63;12.20;;;0.60;99.90;;;;;;4884000;29;20045;-76
2024/01/17 02:22:57;;;;;;;18.85;11.35;;;0.60;99.90;;;;;;4883938;29;20053;-76
2024/01/17 02:25:23;;;;;;;17.42;10.23;;;0.60;99.90;;;;;;4882753;29;20470;-76
2024/01/17 02:27:48;;;;;;;13.45;8.60;;;0.60;99.90;;;;;;4883913;29;20048;-76
2024/01/17 02:30:15;;;;;;;16.13;9.93;;;0.60;99.90;;;;;;4884221;29;20048;-76
2024/01/17 02:32:42;;;;;;;17.80;11.65;;;0.60;99.90;;;;;;4883805;29;20528;-76
2024/01/17 02:35:09;;;;;;;15.60;10.05;;;0.60;99.90;;;;;;4900470;29;20136;-76
2024/01/17 02:37:34;;;;;;;19.55;12.50;;;0.50;99.90;;;;;;4882628;29;20481;-76
2024/01/17 02:40:00;;;;;;;20.73;11.45;;;0.50;99.90;;;;;;4883720;29;20052;-76
2024/01/17 02:42:25;;;;;;;19.27;11.90;;;0.50;99.90;;;;;;4883507;29;20059;-76
2024/01/17 02:44:51;;;;;;;16.50;10.60;;;0.50;99.90;;;;;;4883883;29;20052;-76
2024/01/17 02:47:17;;;;;;;16.65;11.00;;;0.50;99.90;;;;;;4883602;29;20374;-76
2024/01/17 02:49:42;;;;;;;19.58;11.48;;;0.50;99.90;;;;;;4883456;29;20051;-76
2024/01/17 02:52:08;;;;;;;17.23;12.55;;;0.50;99.90;;;;;;4883601;29;20052;-76
2024/01/17 02:54:33;;;;;;;18.23;11.98;;;0.50;99.90;;;;;;4883660;29;20056;-76
2024/01/17 02:56:59;;;;;;;16.90;12.00;;;0.60;99.90;;;;;;4883479;29;20040;-76
2024/01/17 02:59:25;;;;;;;17.85;11.75;;;0.50;99.90;;;;;;4883420;29;20118;-76
2024/01/17 03:01:53;;;;;;;22.13;11.00;;;0.50;99.90;;;;;;4900165;29;20057;-76
2024/01/17 03:04:24;;;;;;;19.73;10.82;;;0.50;99.90;;;;;;4883166;29;20127;-76
2024/01/17 03:06:53;;;;;;;22.52;10.95;;;0.60;99.90;;;;;;4883201;29;20052;-76
2024/01/17 03:09:19;;;;;;;17.92;12.20;;;0.50;99.90;;;;;;4883092;29;20060;-76
2024/01/17 03:11:45;;;;;;;19.42;12.25;;;0.50;99.90;;;;;;4883028;29;20048;-76
2024/01/17 03:14:10;;;;;;;20.55;12.43;;;0.50;99.90;;;;;;4883165;29;20049;-76
2024/01/17 03:16:36;;;;;;;18.70;12.23;;;0.50;99.90;;;;;;4883251;29;20064;-76
2024/01/17 03:19:02;;;;;;;20.48;11.98;;;0.50;99.90;;;;;;4882926;29;20489;-76
2024/01/17 03:21:28;;;;;;;20.05;13.20;;;0.50;99.90;;;;;;4883071;29;20045;-76
2024/01/17 03:23:54;;;;;;;19.75;13.27;;;0.40;99.90;;;;;;4883208;29;20096;-76
2024/01/17 03:26:20;;;;;;;22.13;12.25;;;0.50;99.90;;;;;;4882866;29;20049;-76
2024/01/17 03:28:46;;;;;;;18.20;12.25;;;0.40;99.90;;;;;;4882922;29;20049;-76
2024/01/17 03:31:12;;;;;;;19.80;13.00;;;0.40;99.90;;;;;;4882709;29;20125;-76
2024/01/17 03:33:37;;;;;;;21.85;14.38;;;0.50;99.90;;;;;;4882601;29;20053;-76
2024/01/17 03:36:03;;;;;;;21.58;13.57;;;0.40;99.90;;;;;;4882743;29;20057;-76
2024/01/17 03:38:28;;;;;;;21.95;11.43;;;0.40;99.90;;;;;;4882962;29;20137;-76
2024/01/17 03:41:00;;;;;;;20.23;12.20;;;0.40;99.90;;;;;;4882582;29;20409;-76
2024/01/17 03:43:26;;;;;;;23.45;14.90;;;0.40;99.90;;;;;;4882692;29;20109;-76
2024/01/17 03:45:53;;;;;;;22.83;14.77;;;0.40;99.90;;;;;;4882394;29;20045;-76
2024/01/17 03:48:19;;;;;;;23.85;15.60;;;0.40;99.90;;;;;;4882192;29;20052;-76
2024/01/17 03:50:45;;;;;;;21.38;12.90;;;0.40;99.90;;;;;;4882591;29;20048;-76
2024/01/17 03:53:10;;;;;;;17.27;12.52;;;0.40;99.90;;;;;;4882376;29;20053;-76
2024/01/17 03:55:36;;;;;;;24.65;14.55;;;0.40;99.90;;;;;;4882424;29;20150;-76
2024/01/17 03:58:01;;;;;;;24.48;15.48;;;0.40;99.90;;;;;;4882190;29;20048;-76
2024/01/17 04:00:27;;;;;;;21.92;14.82;;;0.40;99.90;;;;;;4882129;29;20044;-76
2024/01/17 04:02:53;;;;;;;28.75;14.95;;;0.50;99.90;;;;;;4882259;29;20052;-76
2024/01/17 04:05:21;;;;;;;22.60;14.07;;;0.40;99.90;;;;;;4882491;29;20053;-76
2024/01/17 04:07:47;;;;;;;24.67;15.43;;;0.40;99.90;;;;;;4881958;29;20080;-76
2024/01/17 04:10:12;;;;;;;27.90;15.82;;;0.50;99.90;;;;;;4882099;29;20153;-76
2024/01/17 04:12:38;;;;;;;22.25;15.18;;;0.40;99.90;;;;;;4881894;29;20060;-76
2024/01/17 04:15:05;;;;;;;20.50;12.55;;;0.40;99.90;;;;;;4881993;29;20135;-76
2024/01/17 04:17:31;;;;;;;23.00;14.57;;;0.40;99.90;;;;;;4882021;29;20045;-76
2024/01/17 04:19:57;;;;;;;27.58;16.38;;;0.50;99.90;;;;;;4881990;29;20064;-76
2024/01/17 04:22:22;;;;;;;27.58;16.75;;;0.40;99.90;;;;;;4881846;29;20101;-76
2024/01/17 04:24:48;;;;;;;25.77;16.52;;;0.40;99.90;;;;;;4881904;29;20045;-76
2024/01/17 04:27:20;;;;;;;23.83;15.18;;;0.50;99.90;;;;;;4882158;29;20048;-76
2024/01/17 04:29:45;;;;;;;24.42;16.67;;;0.40;99.90;;;;;;4882110;29;20463;-76
2024/01/17 04:32:11;;;;;;;28.85;16.85;;;0.50;99.90;;;;;;4881900;29;20127;-76
2024/01/17 04:34:40;;;;;;;26.23;17.35;;;0.50;99.90;;;;;;4881838;29;20396;-76
2024/01/17 04:37:07;;;;;;;32.78;16.67;;;0.50;99.90;;;;;;4881888;29;20040;-76
2024/01/17 04:39:32;;;;;;;23.48;15.48;;;0.50;99.90;;;;;;4881881;29;20055;-76
2024/01/17 04:42:00;;;;;;;22.08;15.40;;;0.50;99.90;;;;;;4881950;29;20131;-76
2024/01/17 04:44:30;;;;;;;25.45;16.77;;;0.50;99.90;;;;;;4881898;29;20057;-76
2024/01/17 04:46:57;;;;;;;24.67;15.30;;;0.50;99.90;;;;;;4881222;29;20068;-76
2024/01/17 04:49:27;;;;;;;26.25;17.13;;;0.50;99.90;;;;;;4882006;29;20048;-76
2024/01/17 04:51:53;;;;;;;23.20;14.32;;;0.50;99.90;;;;;;4881858;29;20044;-76
2024/01/17 04:54:23;;;;;;;24.90;16.38;;;0.50;99.90;;;;;;4881851;29;20061;-76
2024/01/17 04:56:49;;;;;;;28.10;16.00;;;0.50;99.90;;;;;;4881613;29;20045;-76
2024/01/17 04:59:18;;;;;;;28.52;16.13;;;0.50;99.90;;;;;;4881902;29;20045;-76
2024/01/17 05:01:43;;;;;;;23.63;15.05;;;0.50;99.90;;;;;;4884440;29;20384;-76
2024/01/17 05:04:09;;;;;;;23.60;14.93;;;0.50;99.90;;;;;;4885498;29;20055;-76
2024/01/17 05:06:34;;;;;;;25.02;16.33;;;0.50;99.90;;;;;;4885400;29;20049;-76
2024/01/17 05:09:07;;;;;;;24.55;16.02;;;0.50;99.90;;;;;;4885089;29;20060;-76
2024/01/17 05:11:33;;;;;;;24.73;15.48;;;0.50;99.90;;;;;;4885165;29;20392;-76
2024/01/17 05:14:02;;;;;;;26.30;17.20;;;0.50;99.90;;;;;;4901985;29;20480;-76
2024/01/17 05:16:27;;;;;;;24.75;14.82;;;0.50;99.90;;;;;;4885444;29;20052;-76
2024/01/17 05:18:53;;;;;;;29.75;17.92;;;0.40;99.90;;;;;;4885206;29;20400;-76
2024/01/17 05:21:19;;;;;;;27.73;16.00;;;0.40;99.90;;;;;;4901932;29;20111;-76
2024/01/17 05:23:44;;;;;;;27.65;17.65;;;0.30;99.90;;;;;;4885056;29;20048;-76
2024/01/17 05:26:16;;;;;;;29.58;16.30;;;0.30;99.90;;;;;;4885002;29;20055;-76
2024/01/17 05:28:42;;;;;;;23.35;16.88;;;0.30;99.90;;;;;;4885186;29;20104;-76
2024/01/17 05:31:09;;;;;;;28.77;16.27;;;0.20;99.90;;;;;;4885004;29;20133;-76
2024/01/17 05:33:35;;;;;;;28.85;16.80;;;0.20;99.90;;;;;;4901590;29;20560;-76
2024/01/17 05:36:01;;;;;;;23.75;15.93;;;0.20;99.90;;;;;;4884993;29;20153;-76
2024/01/17 05:38:27;;;;;;;23.75;15.20;;;0.20;99.90;;;;;;4885040;29;20139;-76
2024/01/17 05:40:52;;;;;;;28.05;18.02;;;0.10;99.90;;;;;;4884708;29;20044;-76
2024/01/17 05:43:18;;;;;;;25.35;16.17;;;0.10;99.90;;;;;;4884710;29;20041;-76
2024/01/17 05:45:44;;;;;;;27.70;16.88;;;0.10;99.90;;;;;;4884746;29;20047;-76
2024/01/17 05:48:09;;;;;;;30.15;16.58;;;0.10;99.90;;;;;;4884646;29;20045;-76
2024/01/17 05:50:35;;;;;;;27.27;17.70;;;0.10;99.90;;;;;;4884713;29;20076;-76
2024/01/17 05:53:01;;;;;;;24.50;16.13;;;0.10;99.90;;;;;;4884517;29;20040;-76
2024/01/17 05:55:27;;;;;;;24.88;15.38;;;0.10;99.90;;;;;;4884463;29;20100;-76
2024/01/17 05:57:53;;;;;;;26.70;16.30;;;0.10;99.90;;;;;;4884473;29;20060;-76
2024/01/17 06:00:22;;;;;;;25.90;15.52;;;0.10;99.90;;;;;;4901344;29;20123;-76
2024/01/17 06:02:48;;;;;;;25.15;17.50;;;0.10;99.90;;;;;;4884292;29;20497;-76
2024/01/17 06:05:13;;;;;;;25.88;17.38;;;0.10;99.90;;;;;;4884499;29;20067;-76
2024/01/17 06:07:40;;;;;;;29.00;18.92;;;0.10;99.90;;;;;;4883957;29;20063;-76
2024/01/17 06:10:08;;;;;;;32.97;17.58;;;0.10;99.90;;;;;;4884223;29;20108;-76
2024/01/17 06:12:34;;;;;;;26.45;18.15;;;0.00;99.90;;;;;;4884089;29;20044;-76
2024/01/17 06:15:00;;;;;;;25.42;17.15;;;0.00;99.90;;;;;;4884457;29;20131;-76
2024/01/17 06:17:25;;;;;;;28.60;19.45;;;0.00;99.90;;;;;;4884492;29;20444;-76
2024/01/17 06:19:51;;;;;;;27.33;19.15;;;0.00;99.90;;;;;;4883972;29;20453;-76
2024/01/17 06:22:18;;;;;;;30.38;18.02;;;0.00;99.90;;;;;;4900774;29;20041;-76
2024/01/17 06:24:45;;;;;;;29.08;19.02;;;0.00;99.90;;;;;;4884188;29;20116;-76
2024/01/17 06:27:11;;;;;;;29.63;18.10;;;0.00;99.90;;;;;;4883982;29;20588;-76
2024/01/17 06:29:43;;;;;;;28.70;16.02;;;0.00;99.90;;;;;;4884223;29;20139;-76
2024/01/17 06:32:09;;;;;;;29.10;17.30;;;0.00;99.90;;;;;;4884103;29;20045;-76
2024/01/17 06:34:36;;;;;;;27.45;19.80;;;-0.10;99.90;;;;;;4883999;29;20052;-76
2024/01/17 06:37:03;;;;;;;28.65;18.75;;;-0.10;99.90;;;;;;4883965;29;20480;-76
2024/01/17 06:39:32;;;;;;;27.85;18.38;;;-0.20;99.90;;;;;;4884041;29;20066;-76
2024/01/17 06:41:58;;;;;;;33.75;20.05;;;-0.10;99.90;;;;;;4883987;29;20048;-76
2024/01/17 06:44:30;;;;;;;26.67;17.27;;;-0.20;99.90;;;;;;4883697;29;20040;-76
2024/01/17 06:46:57;;;;;;;30.83;19.52;;;-0.20;99.90;;;;;;4883754;29;20405;-76
2024/01/17 06:49:23;;;;;;;31.75;17.92;;;-0.20;99.90;;;;;;4883463;29;20043;-76
2024/01/17 06:51:49;;;;;;;25.33;16.83;;;-0.20;99.90;;;;;;4883409;29;20056;-76
2024/01/17 06:54:15;;;;;;;29.52;18.90;;;-0.20;99.90;;;;;;4883764;29;20047;-76
2024/01/17 06:56:41;;;;;;;28.98;16.88;;;-0.20;99.90;;;;;;4900295;29;20132;-76
2024/01/17 06:59:06;;;;;;;28.42;18.02;;;-0.20;99.90;;;;;;4883573;29;20092;-76
2024/01/17 07:01:35;;;;;;;24.52;19.02;;;-0.20;99.90;;;;;;4883466;29;20397;-76
2024/01/17 07:04:01;;;;;;;27.67;17.85;;;-0.20;99.90;;;;;;4883421;29;20052;-76
2024/01/17 07:06:26;;;;;;;30.92;17.35;;;-0.20;99.90;;;;;;4883271;29;20065;-76
2024/01/17 07:08:52;;;;;;;29.08;18.65;;;-0.20;99.90;;;;;;4883185;29;20049;-76
2024/01/17 07:11:19;;;;;;;29.92;18.27;;;-0.20;99.90;;;;;;4883249;29;20044;-76
2024/01/17 07:13:45;;;;;;;27.73;17.48;;;-0.30;99.90;;;;;;4883097;29;20060;-76
2024/01/17 07:16:17;;;;;;;29.27;17.02;;;-0.30;99.90;;;;;;4899961;29;20051;-76
2024/01/17 07:18:42;;;;;;;29.80;17.95;;;-0.20;99.90;;;;;;4883006;29;20396;-76
2024/01/17 07:21:08;;;;;;;31.25;18.33;;;-0.30;99.90;;;;;;4883275;29;20123;-76
2024/01/17 07:23:34;;;;;;;30.08;19.17;;;-0.30;99.90;;;;;;4882328;29;20131;-76
2024/01/17 07:26:00;;;;;;;25.27;16.13;;;-0.30;99.90;;;;;;4882972;29;20044;-76
2024/01/17 07:28:26;;;;;;;31.30;18.52;;;-0.30;99.90;;;;;;4882651;29;20128;-76
2024/01/17 07:30:51;;;;;;;27.48;17.60;;;-0.40;99.90;;;;;;4882715;29;20058;-76
2024/01/17 07:33:17;;;;;;;32.83;19.05;;;-0.40;99.90;;;;;;4882695;29;20056;-76
2024/01/17 07:35:43;;;;;;;30.27;18.40;;;-0.40;99.90;;;;;;4882929;29;20051;-76
2024/01/17 07:38:08;;;;;;;29.00;18.83;;;-0.40;99.90;;;;;;4882749;29;20510;-76
2024/01/17 07:40:34;;;;;;;29.75;17.77;;;-0.50;99.90;;;;;;4899174;29;20093;-76
2024/01/17 07:43:00;;;;;;;27.10;18.67;;;-0.50;99.90;;;;;;4881589;29;20091;-75
2024/01/17 07:45:26;;;;;;;32.90;18.45;;;-0.50;99.90;;;;;;4881519;29;20052;-76
2024/01/17 07:47:52;;;;;;;31.60;19.05;;;-0.50;99.90;;;;;;4882642;29;20053;-76
2024/01/17 07:50:19;;;;;;;29.48;18.42;;;-0.50;99.90;;;;;;4882349;29;20052;-76
2024/01/17 07:52:45;;;;;;;30.67;20.30;;;-0.50;99.90;;;;;;4882332;29;20080;-76
2024/01/17 07:55:11;;;;;;;27.45;18.85;;;-0.50;99.90;;;;;;4882169;29;20041;-76
2024/01/17 07:57:36;;;;;;;31.50;19.02;;;-0.50;99.90;;;;;;4882418;29;20048;-76
2024/01/17 08:00:04;;;;;;;29.35;17.02;;;-0.50;99.90;;;;;;4882263;29;20515;-76
2024/01/17 08:02:31;;;;;;;30.10;19.20;;;-0.50;99.90;;;;;;4882042;29;20063;-76
2024/01/17 08:04:56;;;;;;;26.67;17.58;;;-0.50;99.90;;;;;;4882262;29;20064;-76
2024/01/17 08:07:25;;;;;;;30.08;18.67;;;-0.50;99.90;;;;;;4881982;29;20112;-76
2024/01/17 08:09:53;;;;;;;31.15;18.00;;;-0.60;99.90;;;;;;4882232;29;20060;-74
2024/01/17 08:12:19;;;;;;;26.88;18.55;;;-0.50;99.90;;;;;;4881877;29;20044;-76
2024/01/17 08:14:45;;;;;;;26.23;17.23;;;-0.60;99.90;;;;;;4881907;29;20064;-76
2024/01/17 08:17:11;;;;;;;30.70;18.10;;;-0.50;99.90;;;;;;4881964;29;20048;-75
2024/01/17 08:19:37;;;;;;;28.95;17.30;;;-0.50;99.90;;;;;;4867814;29;20065;-77
2024/01/17 08:22:04;;;;;;;30.65;17.55;;;-0.50;99.90;;;;;;4851929;29;20045;-76
2024/01/17 08:24:30;;;;;;;28.48;17.92;;;-0.50;99.90;;;;;;4844592;29;20106;-80
2024/01/17 08:26:56;;;;;;;29.20;17.92;;;-0.50;99.90;;;;;;4844467;29;20570;-76
2024/01/17 08:29:22;;;;;;;30.48;18.75;;;-0.50;99.90;;;;;;4844791;29;20114;-76
2024/01/17 08:31:49;;;;;;;29.40;17.85;;;-0.40;99.90;;;;;;4844426;29;20417;-76
2024/01/17 08:34:14;;;;;;;27.35;16.52;;;-0.40;99.90;;;;;;4844474;29;20053;-76
2024/01/17 08:36:40;;;;;;;26.88;15.10;;;-0.40;99.90;;;;;;4844473;29;20045;-76
2024/01/17 08:39:06;;;;;;;30.95;18.75;;;-0.40;99.90;;;;;;4844604;29;20136;-77
2024/01/17 08:41:33;;;;;;;30.52;17.55;;;-0.40;99.90;;;;;;4844567;29;20057;-77
2024/01/17 08:44:02;;;;;;;26.65;17.05;;;-0.30;99.90;;;;;;4844449;29;20049;-77
2024/01/17 08:46:28;;;;;;;23.60;15.27;;;-0.30;99.90;;;;;;4844349;29;20053;-77
2024/01/17 08:48:54;;;;;;;26.30;16.35;;;-0.30;99.90;;;;;;4844652;29;20053;-76
2024/01/17 08:51:21;;;;;;;24.98;15.27;;;-0.30;99.90;;;;;;4844255;29;20098;-76
2024/01/17 08:53:47;;;;;;;25.42;16.35;;;-0.30;99.90;;;;;;4844217;29;20058;-77
2024/01/17 08:56:14;;;;;;;28.40;15.55;;;-0.30;99.90;;;;;;4844414;29;20049;-77
2024/01/17 08:58:42;;;;;;;29.27;16.80;;;-0.30;99.90;;;;;;4844511;29;20063;-77
2024/01/17 09:01:10;;;;;;;25.77;17.23;;;-0.20;99.90;;;;;;4844556;29;20118;-76
2024/01/17 09:03:36;;;;;;;28.08;17.35;;;-0.30;99.90;;;;;;4844462;29;20046;-76
2024/01/17 09:06:02;;;;;;;29.30;16.38;;;-0.30;99.90;;;;;;4844280;29;20136;-76
2024/01/17 09:08:31;;;;;;;25.50;16.70;;;-0.30;99.90;;;;;;4844128;29;20166;-76
2024/01/17 09:10:57;;;;;;;27.40;15.10;;;-0.20;99.90;;;;;;4844116;29;20061;-76
2024/01/17 09:13:23;;;;;;;23.85;16.52;;;-0.20;99.90;;;;;;4856319;29;20049;-76
2024/01/17 09:15:48;;;;;;;27.98;16.25;;;-0.20;99.90;;;;;;4879267;29;20450;-76
2024/01/17 09:18:17;;;;;;;28.67;16.50;;;-0.10;99.90;;;;;;4862517;29;20045;-76
2024/01/17 09:20:46;;;;;;;24.08;14.60;;;-0.20;99.90;;;;;;4862375;29;20095;-76
2024/01/17 09:23:13;;;;;;;25.27;17.40;;;-0.10;99.90;;;;;;4862450;29;20045;-76
2024/01/17 09:25:39;;;;;;;27.40;15.35;;;-0.10;99.90;;;;;;4864571;29;20056;-77
2024/01/17 09:28:05;;;;;;;26.85;15.85;;;-0.10;99.90;;;;;;4872008;29;20044;-76
2024/01/17 09:30:31;;;;;;;29.73;17.27;;;-0.10;99.90;;;;;;4887803;29;20041;-76
2024/01/17 09:32:57;;;;;;;25.60;16.52;;;-0.10;99.90;;;;;;4875223;29;20061;-77
2024/01/17 09:35:22;;;;;;;25.10;16.83;;;-0.10;99.90;;;;;;4871032;29;20103;-77
2024/01/17 09:37:48;;;;;;;25.48;16.63;;;-0.10;99.90;;;;;;4877253;29;20045;-77
2024/01/17 09:40:14;;;;;;;28.05;16.33;;;-0.10;99.90;;;;;;4897758;29;20052;-77
2024/01/17 09:42:40;;;;;;;25.33;15.88;;;-0.10;99.90;;;;;;4880905;29;20087;-77
2024/01/17 09:45:09;;;;;;;26.55;16.08;;;0.00;99.90;;;;;;4881120;29;20131;-77
2024/01/17 09:47:36;;;;;;;26.02;16.25;;;-0.10;99.90;;;;;;4883983;29;20124;-77
2024/01/17 09:50:02;;;;;;;23.15;15.05;;;-0.10;99.90;;;;;;4884144;29;20053;-77
2024/01/17 09:52:30;;;;;;;25.38;15.25;;;-0.10;99.90;;;;;;4884405;29;20056;-77
2024/01/17 09:54:59;;;;;;;23.38;15.50;;;0.00;99.90;;;;;;4884245;29;20048;-77
2024/01/17 09:57:26;;;;;;;22.10;15.18;;;0.00;99.90;;;;;;4884387;29;20069;-77
2024/01/17 09:59:58;;;;;;;28.58;16.25;;;0.00;99.90;;;;;;4884121;29;20051;-77
2024/01/17 10:02:25;;;;;;;27.45;17.02;;;0.00;99.90;;;;;;4884323;29;20056;-77
2024/01/17 10:04:51;;;;;;;27.60;16.30;;;0.00;99.90;;;;;;4884548;29;20131;-77
2024/01/17 10:07:17;;;;;;;27.08;17.15;;;0.00;99.90;;;;;;4883843;29;20516;-77
2024/01/17 10:09:46;;;;;;;25.23;16.75;;;0.00;99.90;;;;;;4883913;29;20048;-77
2024/01/17 10:12:13;;;;;;;26.60;17.42;;;0.00;99.90;;;;;;4883958;29;20127;-77
2024/01/17 10:14:40;;;;;;;26.92;16.70;;;0.00;99.90;;;;;;4865233;29;20505;-77
2024/01/17 10:17:06;;;;;;;25.27;16.67;;;0.00;99.90;;;;;;4865225;29;20057;-77
2024/01/17 10:19:33;;;;;;;29.63;17.73;;;0.00;99.90;;;;;;4882106;29;20124;-77
2024/01/17 10:22:02;;;;;;;27.55;17.80;;;0.10;99.90;;;;;;4896195;29;20053;-77
2024/01/17 10:24:31;;;;;;;29.77;18.25;;;0.00;99.90;;;;;;4865023;29;20531;-77
2024/01/17 10:26:57;;;;;;;26.08;17.65;;;0.00;99.90;;;;;;4865564;29;20045;-76
2024/01/17 10:29:23;;;;;;;25.83;16.85;;;0.00;99.90;;;;;;4864949;29;20573;-76
2024/01/17 10:31:48;;;;;;;25.35;16.17;;;0.00;99.90;;;;;;4881626;29;20053;-76
2024/01/17 10:34:14;;;;;;;30.33;18.23;;;0.00;99.90;;;;;;4881731;29;20052;-76
2024/01/17 10:36:44;;;;;;;26.60;17.83;;;0.00;99.90;;;;;;4864910;29;20461;-76
2024/01/17 10:39:11;;;;;;;26.30;16.52;;;0.00;99.90;;;;;;4895832;29;20048;-76
2024/01/17 10:41:51;;;;;;;28.35;18.05;;;0.00;99.90;;;;;;4864814;29;20060;-76
2024/01/17 10:44:20;;;;;;;25.55;17.58;;;0.00;99.90;;;;;;4881588;29;20045;-76
2024/01/17 10:46:53;;;;;;;23.77;17.00;;;0.00;99.90;;;;;;4896091;29;20064;-76
2024/01/17 10:49:19;;;;;;;;;;;0.00;99.90;;;;;;4896139;29;20065;-76
2024/01/17 10:52:11;;;;;;;25.45;16.38;;;0.00;99.90;;;;;;4864557;29;19935;-76
2024/01/17 10:54:46;;;;;;;28.03;16.90;;;0.10;99.90;;;;;;4895950;29;20088;-77
2024/01/17 10:57:14;;;;;;;29.00;18.33;;;0.10;99.90;;;;;;4864269;29;20057;-75
2024/01/17 10:59:49;;;;;;;26.98;17.40;;;0.10;99.90;;;;;;4864019;29;20041;-75
2024/01/17 11:02:18;;;;;;;28.27;18.85;;;0.10;99.90;;;;;;4864857;29;20053;-77
2024/01/17 11:04:47;;;;;;;26.77;17.52;;;0.00;99.90;;;;;;4864545;29;20052;-75
2024/01/17 11:07:16;;;;;;;27.10;17.75;;;0.10;99.90;;;;;;4864320;29;20109;-77
2024/01/17 11:09:45;;;;;;;27.27;17.00;;;0.10;99.90;;;;;;4864295;29;20421;-76
2024/01/17 11:12:13;;;;;;;27.70;16.83;;;0.10;99.90;;;;;;4864095;29;20391;-76
2024/01/17 11:14:41;;;;;;;24.63;18.08;;;0.10;99.90;;;;;;4864190;29;20049;-76
2024/01/17 11:17:07;;;;;;;25.00;18.05;;;0.10;99.90;;;;;;4895425;29;20103;-77
2024/01/17 11:19:33;;;;;;;25.88;19.30;;;0.10;99.90;;;;;;4895395;29;20045;-76
2024/01/17 11:22:01;;;;;;;24.83;17.77;;;0.10;99.90;;;;;;4864112;29;20095;-76
2024/01/17 11:24:47;;;;;;;26.38;19.33;;;0.10;99.90;;;;;;4864283;29;20053;-76
2024/01/17 11:27:38;;;;;;;25.90;17.77;;;0.10;99.90;;;;;;4895236;29;20131;-76
2024/01/17 11:30:19;;;;;;;24.88;16.80;;;0.20;99.90;;;;;;4863914;29;20109;-76
2024/01/17 11:33:08;;;;;;;27.80;17.88;;;0.20;99.90;;;;;;4863994;29;20056;-76
2024/01/17 11:35:49;;;;;;;29.38;18.15;;;0.20;99.90;;;;;;4864113;29;20083;-76
2024/01/17 11:38:24;;;;;;;24.77;18.50;;;0.20;99.90;;;;;;4863774;29;20469;-76
2024/01/17 11:40:53;;;;;;;30.88;18.95;;;0.20;99.90;;;;;;4863697;29;20053;-76
2024/01/17 11:43:19;;;;;;;26.48;18.08;;;0.20;99.90;;;;;;4863588;29;20101;-76
2024/01/17 11:45:50;;;;;;;26.30;17.98;;;0.20;99.90;;;;;;4894613;29;20049;-75
2024/01/17 11:48:26;;;;;;;29.05;17.83;;;0.20;99.90;;;;;;4863880;29;20132;-76
2024/01/17 11:51:01;;;;;;;30.80;18.67;;;0.30;99.90;;;;;;4863782;29;20091;-75
2024/01/17 11:53:31;;;;;;;27.88;19.05;;;0.30;99.90;;;;;;4863550;29;20128;-75
2024/01/17 11:55:58;;;;;;;31.73;17.15;;;0.30;99.90;;;;;;4863737;29;20049;-76
2024/01/17 11:58:46;;;;;;;28.35;18.10;;;0.40;99.90;;;;;;4863959;29;20489;-76
2024/01/17 12:01:22;;;;;;;28.08;18.40;;;0.40;99.90;;;;;;4894663;29;20049;-76
2024/01/17 12:03:49;;;;;;;29.42;18.50;;;0.40;99.90;;;;;;4879978;29;20618;-76
2024/01/17 12:06:16;;;;;;;29.83;19.85;;;0.40;99.90;;;;;;4880276;29;20128;-76
2024/01/17 12:08:42;;;;;;;25.50;17.85;;;0.50;99.90;;;;;;4862856;29;20057;-76
2024/01/17 12:11:08;;;;;;;27.45;17.70;;;0.50;99.90;;;;;;4863221;29;20068;-76
2024/01/17 12:13:38;;;;;;;27.58;18.48;;;0.50;99.90;;;;;;4894193;29;20056;-76
2024/01/17 12:16:05;;;;;;;29.88;18.33;;;0.60;99.90;;;;;;4863335;29;20142;-75
2024/01/17 12:18:32;;;;;;;30.02;19.08;;;0.60;99.90;;;;;;4880138;29;20069;-77
2024/01/17 12:21:04;;;;;;;28.02;18.27;;;0.60;99.90;;;;;;4894486;29;20144;-77
2024/01/17 12:23:31;;;;;;;26.73;18.20;;;0.60;99.90;;;;;;4894470;29;20045;-77
2024/01/17 12:25:59;;;;;;;29.25;17.20;;;0.70;99.90;;;;;;4863319;29;20057;-77
2024/01/17 12:28:27;;;;;;;29.23;17.63;;;0.70;99.90;;;;;;4862933;29;20049;-77
2024/01/17 12:31:02;;;;;;;31.48;19.08;;;0.70;99.90;;;;;;4894003;29;20051;-76
2024/01/17 12:33:38;;;;;;;26.45;17.45;;;0.80;99.90;;;;;;4893849;29;20139;-77
2024/01/17 12:36:06;;;;;;;28.85;17.65;;;0.80;99.90;;;;;;4863045;29;20056;-77